sensor_id;sensor_type;location;lat;lon;timestamp;pressure;altitude;pressure_sealevel;temperature;humidity
37648;BME280;23490;53.656;10.076;2022-07-18T00:00:35;55756.19;;;-145.95;73.34
37648;BME280;23490;53.656;10.076;2022-07-18T00:03:01;55739.88;;;-145.95;73.75
37648;BME280;23490;53.656;10.076;2022-07-18T00:05:26;55727.63;;;-145.95;73.27
37648;BME280;23490;53.656;10.076;2022-07-18T00:07:51;55727.63;;;-145.95;73.61
37648;BME280;23490;53.656;10.076;2022-07-18T00:10:17;55697.06;;;-145.95;73.67
37648;BME280;23490;53.656;10.076;2022-07-18T00:12:42;55723.56;;;-145.95;75.56
37648;BME280;23490;53.656;10.076;2022-07-18T00:15:08;55715.41;;;-145.95;76.12
37648;BME280;23490;53.656;10.076;2022-07-18T00:17:35;55719.47;;;-145.95;75.82
37648;BME280;23490;53.656;10.076;2022-07-18T00:20:01;55723.56;;;-145.95;74.93
37648;BME280;23490;53.656;10.076;2022-07-18T00:22:27;55748.03;;;-145.95;74.55
37648;BME280;23490;53.656;10.076;2022-07-18T00:24:52;55752.09;;;-145.95;74.33
37648;BME280;23490;53.656;10.076;2022-07-18T00:27:17;55768.41;;;-145.95;74.63
37648;BME280;23490;53.656;10.076;2022-07-18T00:29:43;55721.53;;;-145.95;74.69
37648;BME280;23490;53.656;10.076;2022-07-18T00:32:08;55688.91;;;-145.95;74.25
37648;BME280;23490;53.656;10.076;2022-07-18T00:34:34;55735.78;;;-145.95;73.75
37648;BME280;23490;53.656;10.076;2022-07-18T00:37:00;55768.41;;;-145.95;73.73
37648;BME280;23490;53.656;10.076;2022-07-18T00:39:26;55719.47;;;-145.95;74.14
37648;BME280;23490;53.656;10.076;2022-07-18T00:41:51;55719.47;;;-145.95;73.81
37648;BME280;23490;53.656;10.076;2022-07-18T00:44:23;55748.03;;;-145.95;74.40
37648;BME280;23490;53.656;10.076;2022-07-18T00:46:51;55719.47;;;-145.95;74.34
37648;BME280;23490;53.656;10.076;2022-07-18T00:49:17;55739.88;;;-145.95;74.85
37648;BME280;23490;53.656;10.076;2022-07-18T00:51:42;55764.34;;;-145.95;74.68
37648;BME280;23490;53.656;10.076;2022-07-18T00:54:07;55752.09;;;-145.95;74.67
37648;BME280;23490;53.656;10.076;2022-07-18T00:56:33;55735.78;;;-145.95;74.11
37648;BME280;23490;53.656;10.076;2022-07-18T00:58:59;55784.72;;;-145.95;74.38
37648;BME280;23490;53.656;10.076;2022-07-18T01:01:24;55788.81;;;-145.95;74.98
37648;BME280;23490;53.656;10.076;2022-07-18T01:04:09;55752.09;;;-145.95;74.88
37648;BME280;23490;53.656;10.076;2022-07-18T01:06:36;55731.72;;;-145.95;74.44
37648;BME280;23490;53.656;10.076;2022-07-18T01:09:02;55727.63;;;-145.95;74.20
37648;BME280;23490;53.656;10.076;2022-07-18T01:11:27;55760.25;;;-145.95;74.84
37648;BME280;23490;53.656;10.076;2022-07-18T01:13:53;55715.41;;;-145.95;75.42
37648;BME280;23490;53.656;10.076;2022-07-18T01:16:18;55731.72;;;-145.95;75.42
37648;BME280;23490;53.656;10.076;2022-07-18T01:18:48;55723.56;;;-145.95;75.73
37648;BME280;23490;53.656;10.076;2022-07-18T01:21:14;55731.72;;;-145.95;75.91
37648;BME280;23490;53.656;10.076;2022-07-18T01:23:40;55682.78;;;-145.95;75.89
37648;BME280;23490;53.656;10.076;2022-07-18T01:26:06;55731.72;;;-145.95;76.49
37648;BME280;23490;53.656;10.076;2022-07-18T01:28:31;55725.59;;;-145.95;76.44
37648;BME280;23490;53.656;10.076;2022-07-18T01:30:57;55731.72;;;-145.95;76.75
37648;BME280;23490;53.656;10.076;2022-07-18T01:33:22;55723.56;;;-145.95;76.11
37648;BME280;23490;53.656;10.076;2022-07-18T01:35:48;55699.09;;;-145.95;76.50
37648;BME280;23490;53.656;10.076;2022-07-18T01:38:13;55668.50;;;-145.95;76.51
37648;BME280;23490;53.656;10.076;2022-07-18T01:40:39;55723.56;;;-145.95;76.10
37648;BME280;23490;53.656;10.076;2022-07-18T01:43:04;55695.00;;;-145.95;77.14
37648;BME280;23490;53.656;10.076;2022-07-18T01:45:30;55703.16;;;-145.95;78.37
37648;BME280;23490;53.656;10.076;2022-07-18T01:47:55;55682.78;;;-145.95;77.47
37648;BME280;23490;53.656;10.076;2022-07-18T01:50:21;55731.72;;;-145.95;77.92
37648;BME280;23490;53.656;10.076;2022-07-18T01:52:46;55739.88;;;-145.95;77.48
37648;BME280;23490;53.656;10.076;2022-07-18T01:55:12;55737.84;;;-145.95;77.65
37648;BME280;23490;53.656;10.076;2022-07-18T01:57:38;55731.72;;;-145.95;76.84
37648;BME280;23490;53.656;10.076;2022-07-18T02:00:05;55690.94;;;-145.95;77.14
37648;BME280;23490;53.656;10.076;2022-07-18T02:02:32;55713.38;;;-145.95;77.57
37648;BME280;23490;53.656;10.076;2022-07-18T02:04:57;55731.72;;;-145.95;77.43
37648;BME280;23490;53.656;10.076;2022-07-18T02:07:34;55725.59;;;-145.95;77.44
37648;BME280;23490;53.656;10.076;2022-07-18T02:10:00;55699.09;;;-145.95;77.69
37648;BME280;23490;53.656;10.076;2022-07-18T02:12:26;55719.47;;;-145.95;77.44
37648;BME280;23490;53.656;10.076;2022-07-18T02:14:51;55748.03;;;-145.95;77.54
37648;BME280;23490;53.656;10.076;2022-07-18T02:17:17;55703.16;;;-145.95;77.42
37648;BME280;23490;53.656;10.076;2022-07-18T02:19:43;55748.03;;;-145.95;78.59
37648;BME280;23490;53.656;10.076;2022-07-18T02:22:09;55715.41;;;-145.95;78.27
37648;BME280;23490;53.656;10.076;2022-07-18T02:24:34;55666.47;;;-145.95;78.75
37648;BME280;23490;53.656;10.076;2022-07-18T02:26:59;55703.16;;;-145.95;78.59
37648;BME280;23490;53.656;10.076;2022-07-18T02:29:25;55723.56;;;-145.95;79.21
37648;BME280;23490;53.656;10.076;2022-07-18T02:31:50;55748.03;;;-145.95;78.87
37648;BME280;23490;53.656;10.076;2022-07-18T02:34:16;55717.44;;;-145.95;78.04
37648;BME280;23490;53.656;10.076;2022-07-18T02:36:42;55717.44;;;-145.95;77.95
37648;BME280;23490;53.656;10.076;2022-07-18T02:39:08;55756.19;;;-145.95;79.33
37648;BME280;23490;53.656;10.076;2022-07-18T02:41:34;55748.03;;;-145.95;78.60
37648;BME280;23490;53.656;10.076;2022-07-18T02:44:00;55715.41;;;-145.95;78.42
37648;BME280;23490;53.656;10.076;2022-07-18T02:46:25;55743.94;;;-145.95;79.03
37648;BME280;23490;53.656;10.076;2022-07-18T02:48:51;55723.56;;;-145.95;78.89
37648;BME280;23490;53.656;10.076;2022-07-18T02:51:17;55723.56;;;-145.95;78.63
37648;BME280;23490;53.656;10.076;2022-07-18T02:53:42;55748.03;;;-145.95;79.41
37648;BME280;23490;53.656;10.076;2022-07-18T02:56:08;55739.88;;;-145.95;79.77
37648;BME280;23490;53.656;10.076;2022-07-18T02:58:33;55743.94;;;-145.95;79.42
37648;BME280;23490;53.656;10.076;2022-07-18T03:00:58;55709.28;;;-145.95;79.42
37648;BME280;23490;53.656;10.076;2022-07-18T03:03:24;55723.56;;;-145.95;79.90
37648;BME280;23490;53.656;10.076;2022-07-18T03:05:49;55748.03;;;-145.95;79.46
37648;BME280;23490;53.656;10.076;2022-07-18T03:08:15;55729.69;;;-145.95;79.37
37648;BME280;23490;53.656;10.076;2022-07-18T03:10:40;55735.78;;;-145.95;79.00
37648;BME280;23490;53.656;10.076;2022-07-18T03:13:06;55727.63;;;-145.95;79.66
37648;BME280;23490;53.656;10.076;2022-07-18T03:15:31;55731.72;;;-145.95;79.94
37648;BME280;23490;53.656;10.076;2022-07-18T03:17:56;55733.75;;;-145.95;79.97
37648;BME280;23490;53.656;10.076;2022-07-18T03:20:22;55739.88;;;-145.95;79.97
37648;BME280;23490;53.656;10.076;2022-07-18T03:22:47;55746.00;;;-145.95;79.56
37648;BME280;23490;53.656;10.076;2022-07-18T03:25:12;55731.72;;;-145.95;79.76
37648;BME280;23490;53.656;10.076;2022-07-18T03:27:38;55760.25;;;-145.95;79.71
37648;BME280;23490;53.656;10.076;2022-07-18T03:30:03;55723.56;;;-145.95;79.80
37648;BME280;23490;53.656;10.076;2022-07-18T03:32:29;55743.94;;;-145.95;79.25
37648;BME280;23490;53.656;10.076;2022-07-18T03:34:54;55752.09;;;-145.95;79.82
37648;BME280;23490;53.656;10.076;2022-07-18T03:37:19;55752.09;;;-145.95;79.40
37648;BME280;23490;53.656;10.076;2022-07-18T03:39:45;55729.69;;;-145.95;79.55
37648;BME280;23490;53.656;10.076;2022-07-18T03:42:10;55719.47;;;-145.95;80.03
37648;BME280;23490;53.656;10.076;2022-07-18T03:44:35;55713.38;;;-145.95;79.31
37648;BME280;23490;53.656;10.076;2022-07-18T03:47:01;55735.78;;;-145.95;80.01
37648;BME280;23490;53.656;10.076;2022-07-18T03:49:26;55699.09;;;-145.95;80.10
37648;BME280;23490;53.656;10.076;2022-07-18T03:51:51;55695.00;;;-145.95;81.08
37648;BME280;23490;53.656;10.076;2022-07-18T03:54:20;55743.94;;;-145.95;80.71
37648;BME280;23490;53.656;10.076;2022-07-18T03:56:45;55743.94;;;-145.95;80.71
37648;BME280;23490;53.656;10.076;2022-07-18T03:59:11;55748.03;;;-145.95;80.60
37648;BME280;23490;53.656;10.076;2022-07-18T04:01:36;55739.88;;;-145.95;80.06
37648;BME280;23490;53.656;10.076;2022-07-18T04:04:02;55743.94;;;-145.95;79.75
37648;BME280;23490;53.656;10.076;2022-07-18T04:06:27;55746.00;;;-145.95;79.12
37648;BME280;23490;53.656;10.076;2022-07-18T04:08:53;55756.19;;;-145.95;80.10
37648;BME280;23490;53.656;10.076;2022-07-18T04:11:18;55748.03;;;-145.95;79.39
37648;BME280;23490;53.656;10.076;2022-07-18T04:13:48;55707.25;;;-145.95;80.68
37648;BME280;23490;53.656;10.076;2022-07-18T04:16:14;55719.47;;;-145.95;79.69
37648;BME280;23490;53.656;10.076;2022-07-18T04:18:39;55729.69;;;-145.95;79.37
37648;BME280;23490;53.656;10.076;2022-07-18T04:21:05;55739.88;;;-145.95;79.27
37648;BME280;23490;53.656;10.076;2022-07-18T04:23:30;55746.00;;;-145.95;78.87
37648;BME280;23490;53.656;10.076;2022-07-18T04:25:55;55727.63;;;-145.95;79.59
37648;BME280;23490;53.656;10.076;2022-07-18T04:28:20;55743.94;;;-145.95;79.22
37648;BME280;23490;53.656;10.076;2022-07-18T04:30:46;55748.03;;;-145.95;78.97
37648;BME280;23490;53.656;10.076;2022-07-18T04:33:12;55715.41;;;-145.95;80.10
37648;BME280;23490;53.656;10.076;2022-07-18T04:35:38;55782.69;;;-145.95;81.01
37648;BME280;23490;53.656;10.076;2022-07-18T04:38:04;55754.16;;;-145.95;80.83
37648;BME280;23490;53.656;10.076;2022-07-18T04:40:30;55760.25;;;-145.95;80.43
37648;BME280;23490;53.656;10.076;2022-07-18T04:42:55;55741.91;;;-145.95;81.10
37648;BME280;23490;53.656;10.076;2022-07-18T04:45:21;55727.63;;;-145.95;80.13
37648;BME280;23490;53.656;10.076;2022-07-18T04:47:52;55735.78;;;-145.95;80.61
37648;BME280;23490;53.656;10.076;2022-07-18T04:50:18;55721.53;;;-145.95;80.78
37648;BME280;23490;53.656;10.076;2022-07-18T04:52:45;55772.50;;;-145.95;80.65
37648;BME280;23490;53.656;10.076;2022-07-18T04:55:12;55760.25;;;-145.95;79.77
37648;BME280;23490;53.656;10.076;2022-07-18T04:57:38;55756.19;;;-145.95;78.30
37648;BME280;23490;53.656;10.076;2022-07-18T05:00:24;55768.41;;;-145.95;77.74
37648;BME280;23490;53.656;10.076;2022-07-18T05:02:51;55752.09;;;-145.95;76.89
37648;BME280;23490;53.656;10.076;2022-07-18T05:05:18;55735.78;;;-145.95;76.50
37648;BME280;23490;53.656;10.076;2022-07-18T05:07:45;55780.66;;;-145.95;75.86
37648;BME280;23490;53.656;10.076;2022-07-18T05:10:13;55756.19;;;-145.95;75.10
37648;BME280;23490;53.656;10.076;2022-07-18T05:12:41;55760.25;;;-145.95;74.42
37648;BME280;23490;53.656;10.076;2022-07-18T05:15:09;55786.78;;;-145.95;74.25
37648;BME280;23490;53.656;10.076;2022-07-18T05:17:35;55796.97;;;-145.95;74.53
37648;BME280;23490;53.656;10.076;2022-07-18T05:20:01;55794.94;;;-145.95;73.83
37648;BME280;23490;53.656;10.076;2022-07-18T05:22:26;55739.88;;;-145.95;73.90
37648;BME280;23490;53.656;10.076;2022-07-18T05:24:52;55764.34;;;-145.95;73.01
37648;BME280;23490;53.656;10.076;2022-07-18T05:27:17;55805.13;;;-145.95;73.10
37648;BME280;23490;53.656;10.076;2022-07-18T05:29:42;55772.50;;;-145.95;72.52
37648;BME280;23490;53.656;10.076;2022-07-18T05:32:08;55746.00;;;-145.95;72.58
37648;BME280;23490;53.656;10.076;2022-07-18T05:34:34;55788.81;;;-145.95;72.40
37648;BME280;23490;53.656;10.076;2022-07-18T05:36:59;55827.56;;;-145.95;72.59
37648;BME280;23490;53.656;10.076;2022-07-18T05:39:25;55764.34;;;-145.95;73.02
37648;BME280;23490;53.656;10.076;2022-07-18T05:41:52;55772.50;;;-145.95;73.63
37648;BME280;23490;53.656;10.076;2022-07-18T05:44:17;55768.41;;;-145.95;73.33
37648;BME280;23490;53.656;10.076;2022-07-18T05:46:45;55784.72;;;-145.95;72.87
37648;BME280;23490;53.656;10.076;2022-07-18T05:49:10;55774.53;;;-145.95;73.15
37648;BME280;23490;53.656;10.076;2022-07-18T05:51:36;55768.41;;;-145.95;73.12
37648;BME280;23490;53.656;10.076;2022-07-18T05:54:01;55743.94;;;-145.95;72.32
37648;BME280;23490;53.656;10.076;2022-07-18T05:56:27;55823.47;;;-145.95;73.27
37648;BME280;23490;53.656;10.076;2022-07-18T05:58:52;55817.34;;;-145.95;72.27
37648;BME280;23490;53.656;10.076;2022-07-18T06:01:17;55837.75;;;-145.95;71.10
37648;BME280;23490;53.656;10.076;2022-07-18T06:03:48;55727.63;;;-145.95;71.91
37648;BME280;23490;53.656;10.076;2022-07-18T06:06:14;55778.63;;;-145.95;71.49
37648;BME280;23490;53.656;10.076;2022-07-18T06:08:41;55762.31;;;-145.95;71.61
37648;BME280;23490;53.656;10.076;2022-07-18T06:11:07;55739.88;;;-145.95;70.29
37648;BME280;23490;53.656;10.076;2022-07-18T06:13:34;55768.41;;;-145.95;68.73
37648;BME280;23490;53.656;10.076;2022-07-18T06:16:00;55768.41;;;-145.95;68.55
37648;BME280;23490;53.656;10.076;2022-07-18T06:18:25;55772.50;;;-145.95;67.52
37648;BME280;23490;53.656;10.076;2022-07-18T06:20:50;55780.66;;;-145.95;67.63
37648;BME280;23490;53.656;10.076;2022-07-18T06:23:16;55768.41;;;-145.95;67.33
37648;BME280;23490;53.656;10.076;2022-07-18T06:25:41;55788.81;;;-145.95;66.81
37648;BME280;23490;53.656;10.076;2022-07-18T06:28:06;55770.47;;;-145.95;66.22
37648;BME280;23490;53.656;10.076;2022-07-18T06:30:32;55764.34;;;-145.95;65.48
37648;BME280;23490;53.656;10.076;2022-07-18T06:32:57;55780.66;;;-145.95;66.82
37648;BME280;23490;53.656;10.076;2022-07-18T06:35:23;55760.25;;;-145.95;66.80
37648;BME280;23490;53.656;10.076;2022-07-18T06:37:48;55796.97;;;-145.95;65.46
37648;BME280;23490;53.656;10.076;2022-07-18T06:40:13;55796.97;;;-145.95;65.87
37648;BME280;23490;53.656;10.076;2022-07-18T06:42:38;55768.41;;;-145.95;63.96
37648;BME280;23490;53.656;10.076;2022-07-18T06:45:05;55788.81;;;-145.95;65.23
37648;BME280;23490;53.656;10.076;2022-07-18T06:47:30;55817.34;;;-145.95;63.01
37648;BME280;23490;53.656;10.076;2022-07-18T06:49:56;55780.66;;;-145.95;62.56
37648;BME280;23490;53.656;10.076;2022-07-18T06:52:21;55768.41;;;-145.95;62.73
37648;BME280;23490;53.656;10.076;2022-07-18T06:54:46;55845.91;;;-145.95;61.98
37648;BME280;23490;53.656;10.076;2022-07-18T06:57:12;55805.13;;;-145.95;62.71
37648;BME280;23490;53.656;10.076;2022-07-18T06:59:37;55784.72;;;-145.95;61.20
37648;BME280;23490;53.656;10.076;2022-07-18T07:02:03;55801.03;;;-145.95;60.38
37648;BME280;23490;53.656;10.076;2022-07-18T07:04:28;55809.19;;;-145.95;59.73
37648;BME280;23490;53.656;10.076;2022-07-18T07:06:54;55770.47;;;-145.95;59.79
37648;BME280;23490;53.656;10.076;2022-07-18T07:09:19;55768.41;;;-145.95;58.72
37648;BME280;23490;53.656;10.076;2022-07-18T07:11:44;55784.72;;;-145.95;58.06
37648;BME280;23490;53.656;10.076;2022-07-18T07:14:10;55821.44;;;-145.95;57.78
37648;BME280;23490;53.656;10.076;2022-07-18T07:16:35;55776.56;;;-145.95;58.64
37648;BME280;23490;53.656;10.076;2022-07-18T07:19:00;55784.72;;;-145.95;57.46
37648;BME280;23490;53.656;10.076;2022-07-18T07:21:26;55817.34;;;-145.95;55.64
37648;BME280;23490;53.656;10.076;2022-07-18T07:23:51;55835.72;;;-145.95;57.51
37648;BME280;23490;53.656;10.076;2022-07-18T07:26:16;55792.88;;;-145.95;56.57
37648;BME280;23490;53.656;10.076;2022-07-18T07:28:42;55821.44;;;-145.95;55.20
37648;BME280;23490;53.656;10.076;2022-07-18T07:31:07;55817.34;;;-145.95;54.50
37648;BME280;23490;53.656;10.076;2022-07-18T07:33:33;55801.03;;;-145.95;54.63
37648;BME280;23490;53.656;10.076;2022-07-18T07:36:00;55805.13;;;-145.95;53.76
37648;BME280;23490;53.656;10.076;2022-07-18T07:38:25;55845.91;;;-145.95;52.88
37648;BME280;23490;53.656;10.076;2022-07-18T07:40:55;55788.81;;;-145.95;53.47
37648;BME280;23490;53.656;10.076;2022-07-18T07:43:20;55817.34;;;-145.95;55.47
37648;BME280;23490;53.656;10.076;2022-07-18T07:45:47;55823.47;;;-145.95;55.14
37648;BME280;23490;53.656;10.076;2022-07-18T07:48:18;55817.34;;;-145.95;53.54
37648;BME280;23490;53.656;10.076;2022-07-18T07:50:43;55813.28;;;-145.95;55.68
37648;BME280;23490;53.656;10.076;2022-07-18T07:53:09;55809.19;;;-145.95;50.62
37648;BME280;23490;53.656;10.076;2022-07-18T07:55:34;55805.13;;;-145.95;51.05
37648;BME280;23490;53.656;10.076;2022-07-18T07:58:00;55790.84;;;-145.95;50.68
37648;BME280;23490;53.656;10.076;2022-07-18T08:00:25;55833.66;;;-145.95;50.20
37648;BME280;23490;53.656;10.076;2022-07-18T08:03:00;55821.44;;;-145.95;50.40
37648;BME280;23490;53.656;10.076;2022-07-18T08:05:32;55837.75;;;-145.95;51.79
37648;BME280;23490;53.656;10.076;2022-07-18T08:07:58;55850.00;;;-145.95;51.39
37648;BME280;23490;53.656;10.076;2022-07-18T08:10:24;55815.31;;;-145.95;49.81
37648;BME280;23490;53.656;10.076;2022-07-18T08:12:50;55835.72;;;-145.95;50.07
37648;BME280;23490;53.656;10.076;2022-07-18T08:15:15;55784.72;;;-145.95;50.15
37648;BME280;23490;53.656;10.076;2022-07-18T08:17:40;55829.59;;;-145.95;49.93
37648;BME280;23490;53.656;10.076;2022-07-18T08:20:06;55837.75;;;-145.95;49.63
37648;BME280;23490;53.656;10.076;2022-07-18T08:22:32;55854.06;;;-145.95;48.78
37648;BME280;23490;53.656;10.076;2022-07-18T08:24:57;55829.59;;;-145.95;46.96
37648;BME280;23490;53.656;10.076;2022-07-18T08:27:22;55837.75;;;-145.95;47.40
37648;BME280;23490;53.656;10.076;2022-07-18T08:29:48;55821.44;;;-145.95;47.64
37648;BME280;23490;53.656;10.076;2022-07-18T08:32:13;55880.56;;;-145.95;46.51
37648;BME280;23490;53.656;10.076;2022-07-18T08:34:39;55854.06;;;-145.95;46.24
37648;BME280;23490;53.656;10.076;2022-07-18T08:37:04;55872.41;;;-145.95;45.79
37648;BME280;23490;53.656;10.076;2022-07-18T08:39:30;55850.00;;;-145.95;46.69
37648;BME280;23490;53.656;10.076;2022-07-18T08:41:56;55866.31;;;-145.95;44.01
37648;BME280;23490;53.656;10.076;2022-07-18T08:44:26;55858.16;;;-145.95;43.95
37648;BME280;23490;53.656;10.076;2022-07-18T08:46:52;55847.94;;;-145.95;43.73
37648;BME280;23490;53.656;10.076;2022-07-18T08:49:19;55884.66;;;-145.95;45.51
37648;BME280;23490;53.656;10.076;2022-07-18T08:51:45;55870.38;;;-145.95;42.55
37648;BME280;23490;53.656;10.076;2022-07-18T08:54:11;55856.09;;;-145.95;43.33
37648;BME280;23490;53.656;10.076;2022-07-18T08:56:37;55862.22;;;-145.95;43.05
37648;BME280;23490;53.656;10.076;2022-07-18T08:59:03;55850.00;;;-145.95;43.50
37648;BME280;23490;53.656;10.076;2022-07-18T09:01:30;55856.09;;;-145.95;44.80
37648;BME280;23490;53.656;10.076;2022-07-18T09:03:56;55839.78;;;-145.95;43.41
37648;BME280;23490;53.656;10.076;2022-07-18T09:06:47;55858.16;;;-145.95;42.78
37648;BME280;23490;53.656;10.076;2022-07-18T09:09:15;55845.91;;;-145.95;43.15
37648;BME280;23490;53.656;10.076;2022-07-18T09:11:55;55862.22;;;-145.95;42.02
37648;BME280;23490;53.656;10.076;2022-07-18T09:14:33;55858.16;;;-145.95;41.42
37648;BME280;23490;53.656;10.076;2022-07-18T09:17:10;55862.22;;;-145.95;42.05
37648;BME280;23490;53.656;10.076;2022-07-18T09:20:00;55839.78;;;-145.95;42.25
37648;BME280;23490;53.656;10.076;2022-07-18T09:22:28;55862.22;;;-145.95;40.46
37648;BME280;23490;53.656;10.076;2022-07-18T09:27:42;55886.69;;;-145.95;40.62
37648;BME280;23490;53.656;10.076;2022-07-18T09:30:28;55852.03;;;-145.95;41.53
37648;BME280;23490;53.656;10.076;2022-07-18T09:35:29;55858.16;;;-145.95;40.44
37648;BME280;23490;53.656;10.076;2022-07-18T09:38:03;55890.78;;;-145.95;41.24
37648;BME280;23490;53.656;10.076;2022-07-18T09:40:32;55886.69;;;-145.95;39.55
37648;BME280;23490;53.656;10.076;2022-07-18T09:43:06;55864.25;;;-145.95;40.43
37648;BME280;23490;53.656;10.076;2022-07-18T09:48:08;55866.31;;;-145.95;41.40
37648;BME280;23490;53.656;10.076;2022-07-18T09:50:35;55898.94;;;-145.95;37.98
37648;BME280;23490;53.656;10.076;2022-07-18T09:53:19;55911.16;;;-145.95;37.89
37648;BME280;23490;53.656;10.076;2022-07-18T09:55:48;55866.31;;;-145.95;38.03
37648;BME280;23490;53.656;10.076;2022-07-18T09:58:18;55878.53;;;-145.95;38.99
37648;BME280;23490;53.656;10.076;2022-07-18T10:00:44;55874.47;;;-145.95;38.38
37648;BME280;23490;53.656;10.076;2022-07-18T10:03:10;55870.38;;;-145.95;36.98
37648;BME280;23490;53.656;10.076;2022-07-18T10:05:37;55886.69;;;-145.95;39.44
37648;BME280;23490;53.656;10.076;2022-07-18T10:08:09;55937.66;;;-145.95;38.31
37648;BME280;23490;53.656;10.076;2022-07-18T10:10:35;55878.53;;;-145.95;38.31
37648;BME280;23490;53.656;10.076;2022-07-18T10:13:02;55892.81;;;-145.95;38.03
37648;BME280;23490;53.656;10.076;2022-07-18T10:15:31;55927.47;;;-145.95;37.98
37648;BME280;23490;53.656;10.076;2022-07-18T10:17:57;55911.16;;;-145.95;37.95
37648;BME280;23490;53.656;10.076;2022-07-18T10:20:32;55907.09;;;-145.95;38.36
37648;BME280;23490;53.656;10.076;2022-07-18T10:23:02;55870.38;;;-145.95;38.76
37648;BME280;23490;53.656;10.076;2022-07-18T10:25:31;55894.84;;;-145.95;38.96
37648;BME280;23490;53.656;10.076;2022-07-18T10:28:03;55882.63;;;-145.95;37.90
37648;BME280;23490;53.656;10.076;2022-07-18T10:30:35;55894.84;;;-145.95;37.79
37648;BME280;23490;53.656;10.076;2022-07-18T10:33:01;55905.03;;;-145.95;36.25
37648;BME280;23490;53.656;10.076;2022-07-18T10:36:03;55923.41;;;-145.95;36.63
37648;BME280;23490;53.656;10.076;2022-07-18T10:38:28;55894.84;;;-145.95;36.61
37648;BME280;23490;53.656;10.076;2022-07-18T10:41:05;55919.31;;;-145.95;35.44
37648;BME280;23490;53.656;10.076;2022-07-18T10:43:32;55898.94;;;-145.95;36.95
37648;BME280;23490;53.656;10.076;2022-07-18T10:46:02;55890.78;;;-145.95;37.93
37648;BME280;23490;53.656;10.076;2022-07-18T10:59:01;55927.47;;;-145.95;37.76
37648;BME280;23490;53.656;10.076;2022-07-18T11:01:50;55878.53;;;-145.95;37.66
37648;BME280;23490;53.656;10.076;2022-07-18T11:04:26;55876.50;;;-145.95;38.23
37648;BME280;23490;53.656;10.076;2022-07-18T11:06:53;55856.09;;;-145.95;37.58
37648;BME280;23490;53.656;10.076;2022-07-18T11:09:36;55898.94;;;-145.95;37.93
37648;BME280;23490;53.656;10.076;2022-07-18T11:12:21;55858.16;;;-145.95;38.52
37648;BME280;23490;53.656;10.076;2022-07-18T11:15:09;55856.09;;;-145.95;38.33
37648;BME280;23490;53.656;10.076;2022-07-18T11:17:58;55882.63;;;-145.95;38.86
37648;BME280;23490;53.656;10.076;2022-07-18T11:23:49;55894.84;;;-145.95;38.85
37648;BME280;23490;53.656;10.076;2022-07-18T11:26:19;55894.84;;;-145.95;38.39
37648;BME280;23490;53.656;10.076;2022-07-18T11:28:57;55919.31;;;-145.95;38.82
37648;BME280;23490;53.656;10.076;2022-07-18T11:31:22;55868.34;;;-145.95;38.90
37648;BME280;23490;53.656;10.076;2022-07-18T11:33:49;55909.13;;;-145.95;37.71
37648;BME280;23490;53.656;10.076;2022-07-18T11:36:17;55866.31;;;-145.95;38.03
37648;BME280;23490;53.656;10.076;2022-07-18T11:38:54;55911.16;;;-145.95;37.77
37648;BME280;23490;53.656;10.076;2022-07-18T11:41:21;55878.53;;;-145.95;37.77
37648;BME280;23490;53.656;10.076;2022-07-18T11:43:48;55882.63;;;-145.95;37.51
37648;BME280;23490;53.656;10.076;2022-07-18T11:46:16;55866.31;;;-145.95;37.96
37648;BME280;23490;53.656;10.076;2022-07-18T11:48:44;55866.31;;;-145.95;37.86
37648;BME280;23490;53.656;10.076;2022-07-18T11:51:11;55915.25;;;-145.95;37.83
37648;BME280;23490;53.656;10.076;2022-07-18T11:53:49;55860.19;;;-145.95;37.63
37648;BME280;23490;53.656;10.076;2022-07-18T11:56:16;55854.06;;;-145.95;38.04
37648;BME280;23490;53.656;10.076;2022-07-18T11:58:43;55935.63;;;-145.95;38.49
37648;BME280;23490;53.656;10.076;2022-07-18T12:01:09;55892.81;;;-145.95;38.94
37648;BME280;23490;53.656;10.076;2022-07-18T12:03:36;55876.50;;;-145.95;38.14
37648;BME280;23490;53.656;10.076;2022-07-18T12:06:17;55866.31;;;-145.95;38.19
37648;BME280;23490;53.656;10.076;2022-07-18T12:08:51;55874.47;;;-145.95;39.09
37648;BME280;23490;53.656;10.076;2022-07-18T12:11:28;55945.84;;;-145.95;37.86
37648;BME280;23490;53.656;10.076;2022-07-18T12:13:59;55866.31;;;-145.95;37.52
37648;BME280;23490;53.656;10.076;2022-07-18T12:16:40;55860.19;;;-145.95;38.45
37648;BME280;23490;53.656;10.076;2022-07-18T12:19:11;55892.81;;;-145.95;37.56
37648;BME280;23490;53.656;10.076;2022-07-18T12:21:47;55874.47;;;-145.95;37.40
37648;BME280;23490;53.656;10.076;2022-07-18T12:26:44;55903.00;;;-145.95;37.57
37648;BME280;23490;53.656;10.076;2022-07-18T12:29:10;55847.94;;;-145.95;36.20
37648;BME280;23490;53.656;10.076;2022-07-18T12:31:43;55905.03;;;-145.95;35.58
37648;BME280;23490;53.656;10.076;2022-07-18T12:34:13;55886.69;;;-145.95;34.47
37648;BME280;23490;53.656;10.076;2022-07-18T12:36:57;55915.25;;;-145.95;34.11
37648;BME280;23490;53.656;10.076;2022-07-18T12:39:31;55874.47;;;-145.95;32.96
37648;BME280;23490;53.656;10.076;2022-07-18T12:41:57;55933.59;;;-145.95;31.33
37648;BME280;23490;53.656;10.076;2022-07-18T12:44:32;55907.09;;;-145.95;31.61
37648;BME280;23490;53.656;10.076;2022-07-18T12:46:57;55941.75;;;-145.95;32.43
37648;BME280;23490;53.656;10.076;2022-07-18T12:49:23;55931.56;;;-145.95;33.54
37648;BME280;23490;53.656;10.076;2022-07-18T12:51:48;55935.63;;;-145.95;32.48
37648;BME280;23490;53.656;10.076;2022-07-18T12:54:16;55956.03;;;-145.95;32.66
37648;BME280;23490;53.656;10.076;2022-07-18T12:56:41;55923.41;;;-145.95;34.27